Harveysburg, Ohio
Current Conditions -  °F | °C
As of 6:54 AM on Wednesday 28 Jan 2015 (Local Time) from KILN Reporting Station
Haze Haze  
Wind Chill:   Ceiling: Unl
Heat Index:   Visibility: 4mi
Dew Point:   Wind: 0mph
Humidity: 84%   Direction: NA
Pressure: 30.32"   Gusts: NA
Location:  39.5°N, 84.01°W
Report Text: KILN 281154Z AUTO 00000KT 4SM BR CLR M13/M15 A3032 RMK AO2 SLP309 I1000 I6000 T11281150 11111 21133 53018
Loading
Personal Weather Stations






























Interactive Weather Map New forecast layout! Learn more

10-Day Weather Forecast

Advertisements
Track Severe Weather on mobile